> <
  • 1
  • 2

Novidades

  • Temos o prazer de lhe apresentar… Ler mais +
  • Está disponível a secção Multimédia no… Ler mais +
  • 1
[source: ADDS]
METAR
LPPR 220330Z 00000KT 8000 FEW019 11/10 Q1013 =
TAF
TAF LPPR 212300Z 2200/2224 VRB03KT 9999 BKN018 PROB30 TEMPO 2200/2206 5000 BR SCT004 BKN008 BECMG 2203/2206 SCT020 BECMG 2209/2212 30010KT CAVOK BECMG 2220/2223 VRB03KT 9999 SCT008 =

contactos